sensor_id;sensor_type;location;lat;lon;timestamp;pressure;altitude;pressure_sealevel;temperature;humidity
11448;BME280;43755;49.736;8.734;2023-02-11T00:00:39;99786.72;;;0.89;100.00
11448;BME280;43755;49.736;8.734;2023-02-11T00:02:40;99786.66;;;0.86;100.00
11448;BME280;43755;49.736;8.734;2023-02-11T00:04:42;99784.00;;;0.85;100.00
11448;BME280;43755;49.736;8.734;2023-02-11T00:06:43;99767.56;;;0.87;100.00
11448;BME280;43755;49.736;8.734;2023-02-11T00:08:45;99779.75;;;0.88;100.00
11448;BME280;43755;49.736;8.734;2023-02-11T00:10:51;99770.31;;;0.93;100.00
11448;BME280;43755;49.736;8.734;2023-02-11T00:12:53;99776.53;;;0.98;100.00
11448;BME280;43755;49.736;8.734;2023-02-11T00:14:54;99774.81;;;1.00;100.00
11448;BME280;43755;49.736;8.734;2023-02-11T00:16:56;99775.63;;;0.98;100.00
11448;BME280;43755;49.736;8.734;2023-02-11T00:18:57;99790.53;;;1.03;100.00
11448;BME280;43755;49.736;8.734;2023-02-11T00:20:59;99792.25;;;1.03;100.00
11448;BME280;43755;49.736;8.734;2023-02-11T00:23:05;99783.59;;;1.04;100.00
11448;BME280;43755;49.736;8.734;2023-02-11T00:25:07;99797.53;;;1.04;100.00
11448;BME280;43755;49.736;8.734;2023-02-11T00:27:10;99796.59;;;1.02;100.00
11448;BME280;43755;49.736;8.734;2023-02-11T00:29:11;99787.09;;;1.04;100.00
11448;BME280;43755;49.736;8.734;2023-02-11T00:31:13;99783.66;;;1.05;100.00
11448;BME280;43755;49.736;8.734;2023-02-11T00:33:15;99792.19;;;1.00;100.00
11448;BME280;43755;49.736;8.734;2023-02-11T00:35:16;99799.97;;;0.98;100.00
11448;BME280;43755;49.736;8.734;2023-02-11T00:37:18;99798.22;;;0.97;100.00
11448;BME280;43755;49.736;8.734;2023-02-11T00:39:19;99787.84;;;0.99;100.00
11448;BME280;43755;49.736;8.734;2023-02-11T00:41:21;99791.13;;;0.92;100.00
11448;BME280;43755;49.736;8.734;2023-02-11T00:43:24;99785.97;;;0.95;100.00
11448;BME280;43755;49.736;8.734;2023-02-11T00:45:25;99792.06;;;0.95;100.00
11448;BME280;43755;49.736;8.734;2023-02-11T00:47:27;99789.47;;;0.95;100.00
11448;BME280;43755;49.736;8.734;2023-02-11T00:49:29;99794.53;;;0.89;100.00
11448;BME280;43755;49.736;8.734;2023-02-11T00:51:30;99795.94;;;0.75;100.00
11448;BME280;43755;49.736;8.734;2023-02-11T00:53:32;99796.94;;;0.80;100.00
11448;BME280;43755;49.736;8.734;2023-02-11T00:55:34;99795.97;;;0.76;100.00
11448;BME280;43755;49.736;8.734;2023-02-11T00:57:36;99798.84;;;0.89;100.00
11448;BME280;43755;49.736;8.734;2023-02-11T00:59:38;99804.16;;;0.92;100.00
11448;BME280;43755;49.736;8.734;2023-02-11T01:01:40;99799.88;;;0.95;100.00
11448;BME280;43755;49.736;8.734;2023-02-11T01:03:41;99799.94;;;0.97;100.00
11448;BME280;43755;49.736;8.734;2023-02-11T01:05:43;99787.16;;;1.07;100.00
11448;BME280;43755;49.736;8.734;2023-02-11T01:07:44;99778.50;;;1.08;100.00
11448;BME280;43755;49.736;8.734;2023-02-11T01:09:46;99773.38;;;1.11;100.00
11448;BME280;43755;49.736;8.734;2023-02-11T01:11:47;99772.78;;;1.24;100.00
11448;BME280;43755;49.736;8.734;2023-02-11T01:13:49;99776.25;;;1.25;100.00
11448;BME280;43755;49.736;8.734;2023-02-11T01:15:53;99766.94;;;1.35;100.00
11448;BME280;43755;49.736;8.734;2023-02-11T01:17:54;99768.75;;;1.39;100.00
11448;BME280;43755;49.736;8.734;2023-02-11T01:19:56;99771.50;;;1.45;100.00
11448;BME280;43755;49.736;8.734;2023-02-11T01:21:57;99775.06;;;1.50;100.00
11448;BME280;43755;49.736;8.734;2023-02-11T01:23:59;99773.19;;;1.43;100.00
11448;BME280;43755;49.736;8.734;2023-02-11T01:26:00;99775.97;;;1.50;100.00
11448;BME280;43755;49.736;8.734;2023-02-11T01:28:02;99771.66;;;1.52;100.00
11448;BME280;43755;49.736;8.734;2023-02-11T01:30:05;99766.44;;;1.52;100.00
11448;BME280;43755;49.736;8.734;2023-02-11T01:32:08;99767.25;;;1.50;100.00
11448;BME280;43755;49.736;8.734;2023-02-11T01:34:09;99764.59;;;1.47;100.00
11448;BME280;43755;49.736;8.734;2023-02-11T01:36:11;99756.69;;;1.44;100.00
11448;BME280;43755;49.736;8.734;2023-02-11T01:38:19;99753.19;;;1.43;100.00
11448;BME280;43755;49.736;8.734;2023-02-11T01:40:20;99760.25;;;1.49;100.00
11448;BME280;43755;49.736;8.734;2023-02-11T01:42:22;99744.63;;;1.49;100.00
11448;BME280;43755;49.736;8.734;2023-02-11T01:44:26;99742.84;;;1.48;100.00
11448;BME280;43755;49.736;8.734;2023-02-11T01:46:31;99742.22;;;1.58;100.00
11448;BME280;43755;49.736;8.734;2023-02-11T01:48:35;99743.94;;;1.57;100.00
11448;BME280;43755;49.736;8.734;2023-02-11T01:50:39;99744.81;;;1.58;100.00
11448;BME280;43755;49.736;8.734;2023-02-11T01:52:42;99747.53;;;1.62;100.00
11448;BME280;43755;49.736;8.734;2023-02-11T01:54:48;99743.31;;;1.69;100.00
11448;BME280;43755;49.736;8.734;2023-02-11T01:57:10;99730.31;;;1.71;100.00
11448;BME280;43755;49.736;8.734;2023-02-11T01:59:29;99722.34;;;1.66;100.00
11448;BME280;43755;49.736;8.734;2023-02-11T02:01:33;99722.41;;;1.68;100.00
11448;BME280;43755;49.736;8.734;2023-02-11T02:03:39;99720.66;;;1.68;100.00
11448;BME280;43755;49.736;8.734;2023-02-11T02:05:46;99715.38;;;1.65;100.00
11448;BME280;43755;49.736;8.734;2023-02-11T02:07:58;99711.03;;;1.64;100.00
11448;BME280;43755;49.736;8.734;2023-02-11T02:10:04;99707.53;;;1.63;100.00
11448;BME280;43755;49.736;8.734;2023-02-11T02:12:07;99711.00;;;1.62;100.00
11448;BME280;43755;49.736;8.734;2023-02-11T02:14:09;99706.66;;;1.63;100.00
11448;BME280;43755;49.736;8.734;2023-02-11T02:16:12;99710.91;;;1.58;100.00
11448;BME280;43755;49.736;8.734;2023-02-11T02:18:34;99713.56;;;1.61;100.00
11448;BME280;43755;49.736;8.734;2023-02-11T02:21:10;99699.72;;;1.63;100.00
11448;BME280;43755;49.736;8.734;2023-02-11T02:23:30;99697.13;;;1.65;100.00
11448;BME280;43755;49.736;8.734;2023-02-11T02:26:00;99690.94;;;1.60;100.00
11448;BME280;43755;49.736;8.734;2023-02-11T02:28:20;99687.47;;;1.61;100.00
11448;BME280;43755;49.736;8.734;2023-02-11T02:31:06;99684.06;;;1.65;100.00
11448;BME280;43755;49.736;8.734;2023-02-11T02:33:33;99689.25;;;1.62;100.00
11448;BME280;43755;49.736;8.734;2023-02-11T02:35:41;99675.44;;;1.68;100.00
11448;BME280;43755;49.736;8.734;2023-02-11T02:37:52;99685.84;;;1.66;100.00
11448;BME280;43755;49.736;8.734;2023-02-11T02:39:58;99674.63;;;1.72;100.00
11448;BME280;43755;49.736;8.734;2023-02-11T02:42:04;99668.66;;;1.77;100.00
11448;BME280;43755;49.736;8.734;2023-02-11T02:44:06;99660.81;;;1.76;100.00
11448;BME280;43755;49.736;8.734;2023-02-11T02:46:10;99660.00;;;1.80;100.00
11448;BME280;43755;49.736;8.734;2023-02-11T02:48:24;99660.81;;;1.77;100.00
11448;BME280;43755;49.736;8.734;2023-02-11T02:50:29;99670.41;;;1.78;100.00
11448;BME280;43755;49.736;8.734;2023-02-11T02:52:34;99664.38;;;1.81;100.00
11448;BME280;43755;49.736;8.734;2023-02-11T02:57:28;99667.84;;;1.80;100.00
11448;BME280;43755;49.736;8.734;2023-02-11T02:59:40;99656.50;;;1.79;100.00
11448;BME280;43755;49.736;8.734;2023-02-11T03:01:52;99659.16;;;1.81;100.00
11448;BME280;43755;49.736;8.734;2023-02-11T03:04:04;99662.69;;;1.84;100.00
11448;BME280;43755;49.736;8.734;2023-02-11T03:06:10;99666.97;;;1.79;100.00
11448;BME280;43755;49.736;8.734;2023-02-11T03:08:17;99672.19;;;1.79;100.00
11448;BME280;43755;49.736;8.734;2023-02-11T03:10:21;99679.97;;;1.76;100.00
11448;BME280;43755;49.736;8.734;2023-02-11T03:12:27;99680.94;;;1.81;100.00
11448;BME280;43755;49.736;8.734;2023-02-11T03:14:31;99687.84;;;1.79;100.00
11448;BME280;43755;49.736;8.734;2023-02-11T03:16:33;99689.47;;;1.74;100.00
11448;BME280;43755;49.736;8.734;2023-02-11T03:18:40;99694.78;;;1.79;100.00
11448;BME280;43755;49.736;8.734;2023-02-11T03:20:44;99701.72;;;1.78;100.00
11448;BME280;43755;49.736;8.734;2023-02-11T03:22:53;99701.69;;;1.75;100.00
11448;BME280;43755;49.736;8.734;2023-02-11T03:24:55;99699.97;;;1.77;100.00
11448;BME280;43755;49.736;8.734;2023-02-11T03:27:00;99698.22;;;1.76;100.00
11448;BME280;43755;49.736;8.734;2023-02-11T03:29:09;99686.00;;;1.74;100.00
11448;BME280;43755;49.736;8.734;2023-02-11T03:31:20;99686.94;;;1.79;100.00
11448;BME280;43755;49.736;8.734;2023-02-11T03:33:30;99692.13;;;1.76;100.00
11448;BME280;43755;49.736;8.734;2023-02-11T03:35:38;99688.56;;;1.72;100.00
11448;BME280;43755;49.736;8.734;2023-02-11T03:37:47;99680.78;;;1.74;100.00
11448;BME280;43755;49.736;8.734;2023-02-11T03:39:54;99676.34;;;1.70;100.00
11448;BME280;43755;49.736;8.734;2023-02-11T03:41:57;99681.56;;;1.71;100.00
11448;BME280;43755;49.736;8.734;2023-02-11T03:44:01;99683.34;;;1.71;100.00
11448;BME280;43755;49.736;8.734;2023-02-11T03:46:03;99683.38;;;1.74;100.00
11448;BME280;43755;49.736;8.734;2023-02-11T03:48:08;99682.38;;;1.67;100.00
11448;BME280;43755;49.736;8.734;2023-02-11T03:50:14;99683.22;;;1.66;100.00
11448;BME280;43755;49.736;8.734;2023-02-11T03:52:17;99679.69;;;1.62;100.00
11448;BME280;43755;49.736;8.734;2023-02-11T03:54:24;99674.50;;;1.64;100.00
11448;BME280;43755;49.736;8.734;2023-02-11T03:56:32;99670.13;;;1.63;100.00
11448;BME280;43755;49.736;8.734;2023-02-11T03:58:35;99672.75;;;1.63;100.00
11448;BME280;43755;49.736;8.734;2023-02-11T04:00:40;99666.69;;;1.65;100.00
11448;BME280;43755;49.736;8.734;2023-02-11T04:02:42;99663.84;;;1.53;100.00
11448;BME280;43755;49.736;8.734;2023-02-11T04:04:44;99654.97;;;1.44;100.00
11448;BME280;43755;49.736;8.734;2023-02-11T04:06:45;99643.63;;;1.42;100.00
11448;BME280;43755;49.736;8.734;2023-02-11T04:08:47;99643.66;;;1.43;100.00
11448;BME280;43755;49.736;8.734;2023-02-11T04:10:48;99640.13;;;1.40;100.00
11448;BME280;43755;49.736;8.734;2023-02-11T04:12:51;99637.47;;;1.38;100.00
11448;BME280;43755;49.736;8.734;2023-02-11T04:14:52;99622.50;;;1.28;100.00
11448;BME280;43755;49.736;8.734;2023-02-11T04:16:54;99610.22;;;1.22;100.00
11448;BME280;43755;49.736;8.734;2023-02-11T04:18:55;99614.47;;;1.17;100.00
11448;BME280;43755;49.736;8.734;2023-02-11T04:20:57;99611.84;;;1.16;100.00
11448;BME280;43755;49.736;8.734;2023-02-11T04:22:58;99611.78;;;1.14;100.00
11448;BME280;43755;49.736;8.734;2023-02-11T04:25:00;99608.25;;;1.12;100.00
11448;BME280;43755;49.736;8.734;2023-02-11T04:27:01;99592.56;;;1.09;100.00
11448;BME280;43755;49.736;8.734;2023-02-11T04:29:04;99600.28;;;1.03;100.00
11448;BME280;43755;49.736;8.734;2023-02-11T04:31:06;99608.94;;;1.02;100.00
11448;BME280;43755;49.736;8.734;2023-02-11T04:33:07;99615.03;;;1.03;100.00
11448;BME280;43755;49.736;8.734;2023-02-11T04:35:08;99612.38;;;1.01;100.00
11448;BME280;43755;49.736;8.734;2023-02-11T04:37:10;99618.56;;;1.06;100.00
11448;BME280;43755;49.736;8.734;2023-02-11T04:39:11;99622.81;;;1.01;100.00
11448;BME280;43755;49.736;8.734;2023-02-11T04:41:13;99624.63;;;1.04;100.00
11448;BME280;43755;49.736;8.734;2023-02-11T04:43:14;99624.56;;;1.02;100.00
11448;BME280;43755;49.736;8.734;2023-02-11T04:45:17;99630.63;;;1.01;100.00
11448;BME280;43755;49.736;8.734;2023-02-11T04:47:18;99627.13;;;1.01;100.00
11448;BME280;43755;49.736;8.734;2023-02-11T04:49:20;99625.59;;;1.09;100.00
11448;BME280;43755;49.736;8.734;2023-02-11T04:51:22;99633.47;;;1.12;100.00
11448;BME280;43755;49.736;8.734;2023-02-11T04:53:23;99635.16;;;1.10;100.00
11448;BME280;43755;49.736;8.734;2023-02-11T04:55:25;99632.69;;;1.16;100.00
11448;BME280;43755;49.736;8.734;2023-02-11T04:57:26;99625.75;;;1.18;100.00
11448;BME280;43755;49.736;8.734;2023-02-11T04:59:27;99637.94;;;1.17;100.00
11448;BME280;43755;49.736;8.734;2023-02-11T05:01:30;99646.78;;;1.26;100.00
11448;BME280;43755;49.736;8.734;2023-02-11T05:03:32;99655.31;;;1.17;100.00
11448;BME280;43755;49.736;8.734;2023-02-11T05:05:36;99663.94;;;1.14;100.00
11448;BME280;43755;49.736;8.734;2023-02-11T05:07:38;99670.19;;;1.24;100.00
11448;BME280;43755;49.736;8.734;2023-02-11T05:09:39;99658.13;;;1.28;100.00
11448;BME280;43755;49.736;8.734;2023-02-11T05:11:41;99644.28;;;1.32;100.00
11448;BME280;43755;49.736;8.734;2023-02-11T05:13:42;99636.44;;;1.29;100.00
11448;BME280;43755;49.736;8.734;2023-02-11T05:15:44;99630.38;;;1.31;100.00
11448;BME280;43755;49.736;8.734;2023-02-11T05:17:46;99626.03;;;1.32;100.00
11448;BME280;43755;49.736;8.734;2023-02-11T05:19:48;99635.72;;;1.37;100.00
11448;BME280;43755;49.736;8.734;2023-02-11T05:21:49;99628.84;;;1.42;100.00
11448;BME280;43755;49.736;8.734;2023-02-11T05:23:52;99627.19;;;1.47;100.00
11448;BME280;43755;49.736;8.734;2023-02-11T05:25:53;99622.66;;;1.37;100.00
11448;BME280;43755;49.736;8.734;2023-02-11T05:27:55;99614.81;;;1.34;100.00
11448;BME280;43755;49.736;8.734;2023-02-11T05:29:56;99614.94;;;1.40;100.00
11448;BME280;43755;49.736;8.734;2023-02-11T05:31:58;99612.03;;;1.27;100.00
11448;BME280;43755;49.736;8.734;2023-02-11T05:34:01;99606.91;;;1.31;100.00
11448;BME280;43755;49.736;8.734;2023-02-11T05:36:05;99612.13;;;1.30;100.00
11448;BME280;43755;49.736;8.734;2023-02-11T05:38:07;99614.81;;;1.34;100.00
11448;BME280;43755;49.736;8.734;2023-02-11T05:40:09;99608.75;;;1.37;100.00
11448;BME280;43755;49.736;8.734;2023-02-11T05:42:10;99617.41;;;1.36;100.00
11448;BME280;43755;49.736;8.734;2023-02-11T05:44:12;99617.50;;;1.39;100.00
11448;BME280;43755;49.736;8.734;2023-02-11T05:46:13;99619.22;;;1.38;100.00
11448;BME280;43755;49.736;8.734;2023-02-11T05:48:15;99614.81;;;1.34;100.00
11448;BME280;43755;49.736;8.734;2023-02-11T05:50:18;99609.59;;;1.36;100.00
11448;BME280;43755;49.736;8.734;2023-02-11T05:52:20;99605.31;;;1.38;100.00
11448;BME280;43755;49.736;8.734;2023-02-11T05:54:21;99604.38;;;1.34;100.00
11448;BME280;43755;49.736;8.734;2023-02-11T05:56:22;99604.28;;;1.31;100.00
11448;BME280;43755;49.736;8.734;2023-02-11T05:58:24;99602.66;;;1.35;100.00
11448;BME280;43755;49.736;8.734;2023-02-11T06:00:25;99600.91;;;1.35;100.00
11448;BME280;43755;49.736;8.734;2023-02-11T06:02:27;99606.03;;;1.31;100.00
11448;BME280;43755;49.736;8.734;2023-02-11T06:04:28;99607.75;;;1.29;100.00
11448;BME280;43755;49.736;8.734;2023-02-11T06:06:31;99611.34;;;1.35;100.00
11448;BME280;43755;49.736;8.734;2023-02-11T06:08:32;99611.22;;;1.29;100.00
11448;BME280;43755;49.736;8.734;2023-02-11T06:10:34;99613.72;;;1.24;100.00
11448;BME280;43755;49.736;8.734;2023-02-11T06:12:36;99608.59;;;1.28;100.00
11448;BME280;43755;49.736;8.734;2023-02-11T06:14:37;99606.03;;;1.29;100.00
11448;BME280;43755;49.736;8.734;2023-02-11T06:16:39;99605.91;;;1.23;100.00
11448;BME280;43755;49.736;8.734;2023-02-11T06:18:40;99616.41;;;1.28;100.00
11448;BME280;43755;49.736;8.734;2023-02-11T06:20:42;99621.66;;;1.29;100.00
11448;BME280;43755;49.736;8.734;2023-02-11T06:22:44;99631.22;;;1.29;100.00
11448;BME280;43755;49.736;8.734;2023-02-11T06:24:46;99638.16;;;1.28;100.00
11448;BME280;43755;49.736;8.734;2023-02-11T06:26:47;99623.34;;;1.27;100.00
11448;BME280;43755;49.736;8.734;2023-02-11T06:28:49;99620.06;;;1.37;100.00
11448;BME280;43755;49.736;8.734;2023-02-11T06:30:50;99620.03;;;1.36;100.00
11448;BME280;43755;49.736;8.734;2023-02-11T06:32:51;99610.44;;;1.33;100.00
11448;BME280;43755;49.736;8.734;2023-02-11T06:34:53;99614.84;;;1.37;100.00
11448;BME280;43755;49.736;8.734;2023-02-11T06:36:55;99611.41;;;1.38;100.00
11448;BME280;43755;49.736;8.734;2023-02-11T06:38:58;99605.50;;;1.47;100.00
11448;BME280;43755;49.736;8.734;2023-02-11T06:40:59;99614.09;;;1.43;100.00
11448;BME280;43755;49.736;8.734;2023-02-11T06:43:00;99624.47;;;1.40;100.00
11448;BME280;43755;49.736;8.734;2023-02-11T06:45:02;99633.19;;;1.40;100.00
11448;BME280;43755;49.736;8.734;2023-02-11T06:47:05;99638.28;;;1.36;100.00
11448;BME280;43755;49.736;8.734;2023-02-11T06:49:06;99629.31;;;1.21;100.00
11448;BME280;43755;49.736;8.734;2023-02-11T06:51:09;99613.69;;;1.21;100.00
11448;BME280;43755;49.736;8.734;2023-02-11T06:53:12;99619.69;;;1.19;100.00
11448;BME280;43755;49.736;8.734;2023-02-11T06:55:15;99615.50;;;1.26;100.00
11448;BME280;43755;49.736;8.734;2023-02-11T06:57:16;99608.44;;;1.20;100.00
11448;BME280;43755;49.736;8.734;2023-02-11T06:59:18;99606.78;;;1.23;100.00
11448;BME280;43755;49.736;8.734;2023-02-11T07:01:21;99608.63;;;1.29;100.00
11448;BME280;43755;49.736;8.734;2023-02-11T07:03:23;99613.59;;;1.17;100.00
11448;BME280;43755;49.736;8.734;2023-02-11T07:05:24;99608.31;;;1.14;100.00
11448;BME280;43755;49.736;8.734;2023-02-11T07:07:26;99615.22;;;1.12;100.00
11448;BME280;43755;49.736;8.734;2023-02-11T07:09:27;99615.13;;;1.07;100.00
11448;BME280;43755;49.736;8.734;2023-02-11T07:11:31;99614.22;;;1.07;100.00
11448;BME280;43755;49.736;8.734;2023-02-11T07:13:32;99615.25;;;1.13;100.00
11448;BME280;43755;49.736;8.734;2023-02-11T07:15:35;99628.22;;;1.10;100.00
11448;BME280;43755;49.736;8.734;2023-02-11T07:17:36;99629.06;;;1.09;100.00
11448;BME280;43755;49.736;8.734;2023-02-11T07:19:38;99622.94;;;1.07;100.00
11448;BME280;43755;49.736;8.734;2023-02-11T07:21:39;99624.88;;;1.16;100.00
11448;BME280;43755;49.736;8.734;2023-02-11T07:23:41;99629.44;;;1.28;100.00
11448;BME280;43755;49.736;8.734;2023-02-11T07:25:43;99625.16;;;1.30;100.00
11448;BME280;43755;49.736;8.734;2023-02-11T07:27:45;99631.97;;;1.24;100.00
11448;BME280;43755;49.736;8.734;2023-02-11T07:29:47;99636.31;;;1.22;100.00
11448;BME280;43755;49.736;8.734;2023-02-11T07:31:48;99639.78;;;1.23;100.00
11448;BME280;43755;49.736;8.734;2023-02-11T07:33:51;99634.53;;;1.21;100.00
11448;BME280;43755;49.736;8.734;2023-02-11T07:35:52;99633.66;;;1.21;100.00
11448;BME280;43755;49.736;8.734;2023-02-11T07:37:55;99634.72;;;1.31;100.00
11448;BME280;43755;49.736;8.734;2023-02-11T07:39:56;99634.72;;;1.31;100.00
11448;BME280;43755;49.736;8.734;2023-02-11T07:41:58;99628.66;;;1.32;100.00
11448;BME280;43755;49.736;8.734;2023-02-11T07:44:01;99636.63;;;1.39;100.00
11448;BME280;43755;49.736;8.734;2023-02-11T07:46:03;99631.41;;;1.39;100.00
11448;BME280;43755;49.736;8.734;2023-02-11T07:48:05;99632.09;;;1.29;100.00
11448;BME280;43755;49.736;8.734;2023-02-11T07:50:06;99632.97;;;1.31;100.00
11448;BME280;43755;49.736;8.734;2023-02-11T07:52:08;99640.13;;;1.40;100.00
11448;BME280;43755;49.736;8.734;2023-02-11T07:54:10;99636.47;;;1.32;100.00
11448;BME280;43755;49.736;8.734;2023-02-11T07:56:12;99618.34;;;1.38;100.00
11448;BME280;43755;49.736;8.734;2023-02-11T07:58:14;99617.34;;;1.30;100.00
11448;BME280;43755;49.736;8.734;2023-02-11T08:00:17;99618.28;;;1.35;100.00
11448;BME280;43755;49.736;8.734;2023-02-11T08:02:18;99618.19;;;1.29;100.00
11448;BME280;43755;49.736;8.734;2023-02-11T08:04:20;99617.41;;;1.34;100.00
11448;BME280;43755;49.736;8.734;2023-02-11T08:06:23;99621.75;;;1.34;100.00
11448;BME280;43755;49.736;8.734;2023-02-11T08:08:25;99630.69;;;1.46;100.00
11448;BME280;43755;49.736;8.734;2023-02-11T08:10:27;99646.47;;;1.52;100.00
11448;BME280;43755;49.736;8.734;2023-02-11T08:12:29;99633.41;;;1.54;100.00
11448;BME280;43755;49.736;8.734;2023-02-11T08:14:30;99639.63;;;1.59;100.00
11448;BME280;43755;49.736;8.734;2023-02-11T08:16:35;99644.94;;;1.63;100.00
11448;BME280;43755;49.736;8.734;2023-02-11T08:18:37;99644.03;;;1.63;100.00
11448;BME280;43755;49.736;8.734;2023-02-11T08:20:39;99639.06;;;1.75;100.00
11448;BME280;43755;49.736;8.734;2023-02-11T08:22:40;99648.66;;;1.78;100.00
11448;BME280;43755;49.736;8.734;2023-02-11T08:24:42;99637.41;;;1.80;100.00
11448;BME280;43755;49.736;8.734;2023-02-11T08:26:43;99632.22;;;1.82;100.00
11448;BME280;43755;49.736;8.734;2023-02-11T08:28:46;99639.22;;;1.84;100.00
11448;BME280;43755;49.736;8.734;2023-02-11T08:30:47;99630.59;;;1.90;100.00
11448;BME280;43755;49.736;8.734;2023-02-11T08:32:50;99633.25;;;1.91;100.00
11448;BME280;43755;49.736;8.734;2023-02-11T08:34:52;99648.09;;;1.95;100.00
11448;BME280;43755;49.736;8.734;2023-02-11T08:36:53;99646.47;;;2.02;100.00
11448;BME280;43755;49.736;8.734;2023-02-11T08:38:55;99643.16;;;2.11;100.00
11448;BME280;43755;49.736;8.734;2023-02-11T08:40:58;99651.88;;;2.11;100.00
11448;BME280;43755;49.736;8.734;2023-02-11T08:43:00;99645.78;;;2.12;100.00
11448;BME280;43755;49.736;8.734;2023-02-11T08:45:01;99652.88;;;2.19;100.00
11448;BME280;43755;49.736;8.734;2023-02-11T08:47:04;99665.19;;;2.26;100.00
11448;BME280;43755;49.736;8.734;2023-02-11T08:49:06;99664.44;;;2.33;100.00
11448;BME280;43755;49.736;8.734;2023-02-11T08:51:09;99674.94;;;2.38;100.00
11448;BME280;43755;49.736;8.734;2023-02-11T08:53:12;99681.06;;;2.38;100.00
11448;BME280;43755;49.736;8.734;2023-02-11T08:55:14;99674.94;;;2.38;100.00
11448;BME280;43755;49.736;8.734;2023-02-11T08:57:15;99678.56;;;2.46;100.00
11448;BME280;43755;49.736;8.734;2023-02-11T08:59:16;99681.38;;;2.58;100.00
11448;BME280;43755;49.736;8.734;2023-02-11T09:01:19;99681.41;;;2.61;100.00
11448;BME280;43755;49.736;8.734;2023-02-11T09:03:21;99690.31;;;2.74;100.00
11448;BME280;43755;49.736;8.734;2023-02-11T09:05:24;99684.25;;;2.75;100.00
11448;BME280;43755;49.736;8.734;2023-02-11T09:07:27;99687.03;;;2.85;100.00
11448;BME280;43755;49.736;8.734;2023-02-11T09:09:28;99689.69;;;2.90;100.00
11448;BME280;43755;49.736;8.734;2023-02-11T09:11:31;99686.91;;;2.76;100.00
11448;BME280;43755;49.736;8.734;2023-02-11T09:13:33;99689.50;;;2.78;100.00
11448;BME280;43755;49.736;8.734;2023-02-11T09:15:35;99692.34;;;2.92;100.00
11448;BME280;43755;49.736;8.734;2023-02-11T09:17:36;99689.00;;;3.00;100.00
11448;BME280;43755;49.736;8.734;2023-02-11T09:19:38;99693.44;;;3.09;100.00
11448;BME280;43755;49.736;8.734;2023-02-11T09:21:40;99690.03;;;3.14;100.00
11448;BME280;43755;49.736;8.734;2023-02-11T09:23:42;99704.06;;;3.18;100.00
11448;BME280;43755;49.736;8.734;2023-02-11T09:25:46;99692.78;;;3.23;100.00
11448;BME280;43755;49.736;8.734;2023-02-11T09:27:48;99703.34;;;3.29;100.00
11448;BME280;43755;49.736;8.734;2023-02-11T09:29:50;99702.75;;;3.52;100.00
11448;BME280;43755;49.736;8.734;2023-02-11T09:31:51;99701.06;;;3.57;100.00
11448;BME280;43755;49.736;8.734;2023-02-11T09:33:54;99695.03;;;3.65;100.00
11448;BME280;43755;49.736;8.734;2023-02-11T09:35:59;99703.81;;;3.69;100.00
11448;BME280;43755;49.736;8.734;2023-02-11T09:38:02;99695.09;;;3.68;100.00
11448;BME280;43755;49.736;8.734;2023-02-11T09:40:04;99696.81;;;3.66;100.00
11448;BME280;43755;49.736;8.734;2023-02-11T09:42:22;99697.66;;;3.65;100.00
11448;BME280;43755;49.736;8.734;2023-02-11T09:44:32;99708.97;;;3.61;100.00
11448;BME280;43755;49.736;8.734;2023-02-11T09:46:36;99707.19;;;3.57;100.00
11448;BME280;43755;49.736;8.734;2023-02-11T09:48:40;99707.25;;;3.63;100.00
11448;BME280;43755;49.736;8.734;2023-02-11T09:50:46;99701.25;;;3.74;100.00
11448;BME280;43755;49.736;8.734;2023-02-11T09:52:53;99692.47;;;3.68;100.00
11448;BME280;43755;49.736;8.734;2023-02-11T09:54:59;99695.22;;;3.81;100.00
11448;BME280;43755;49.736;8.734;2023-02-11T09:57:02;99687.31;;;3.78;100.00
11448;BME280;43755;49.736;8.734;2023-02-11T09:59:09;99702.03;;;3.65;100.00
11448;BME280;43755;49.736;8.734;2023-02-11T10:01:15;99697.06;;;3.88;100.00
11448;BME280;43755;49.736;8.734;2023-02-11T10:03:51;99696.22;;;3.89;100.00
11448;BME280;43755;49.736;8.734;2023-02-11T10:06:06;99697.13;;;3.94;100.00
11448;BME280;43755;49.736;8.734;2023-02-11T10:08:15;99698.94;;;3.99;100.00
11448;BME280;43755;49.736;8.734;2023-02-11T10:10:34;99707.66;;;4.00;100.00
11448;BME280;43755;49.736;8.734;2023-02-11T10:13:00;99709.47;;;4.05;100.00
11448;BME280;43755;49.736;8.734;2023-02-11T10:15:23;99714.84;;;4.21;100.00
11448;BME280;43755;49.736;8.734;2023-02-11T10:17:37;99720.22;;;4.34;100.00
11448;BME280;43755;49.736;8.734;2023-02-11T10:19:52;99717.72;;;4.46;100.00
11448;BME280;43755;49.736;8.734;2023-02-11T10:22:01;99712.47;;;4.48;100.00
11448;BME280;43755;49.736;8.734;2023-02-11T10:24:10;99707.28;;;4.54;100.00
11448;BME280;43755;49.736;8.734;2023-02-11T10:26:15;99708.38;;;4.80;100.00
11448;BME280;43755;49.736;8.734;2023-02-11T10:28:19;99705.00;;;4.98;100.00
11448;BME280;43755;49.736;8.734;2023-02-11T10:30:27;99705.00;;;4.97;100.00
11448;BME280;43755;49.736;8.734;2023-02-11T10:32:36;99703.28;;;5.02;100.00
11448;BME280;43755;49.736;8.734;2023-02-11T10:34:40;99700.69;;;5.05;100.00
11448;BME280;43755;49.736;8.734;2023-02-11T10:36:43;99696.44;;;5.31;100.00
11448;BME280;43755;49.736;8.734;2023-02-11T10:38:45;99692.09;;;5.36;100.00
11448;BME280;43755;49.736;8.734;2023-02-11T10:40:46;99697.34;;;5.38;100.00
11448;BME280;43755;49.736;8.734;2023-02-11T10:42:51;99701.75;;;5.40;100.00
11448;BME280;43755;49.736;8.734;2023-02-11T10:44:57;99696.56;;;5.48;100.00
11448;BME280;43755;49.736;8.734;2023-02-11T10:47:02;99704.38;;;5.40;100.00
11448;BME280;43755;49.736;8.734;2023-02-11T10:49:04;99706.19;;;5.53;100.00
11448;BME280;43755;49.736;8.734;2023-02-11T10:51:07;99704.44;;;5.52;100.00
11448;BME280;43755;49.736;8.734;2023-02-11T10:53:15;99704.53;;;5.76;100.00
11448;BME280;43755;49.736;8.734;2023-02-11T10:55:20;99695.78;;;5.81;100.00
11448;BME280;43755;49.736;8.734;2023-02-11T10:57:27;99701.09;;;5.91;100.00
11448;BME280;43755;49.736;8.734;2023-02-11T10:59:33;99705.47;;;5.88;100.00